Time;durP1;ratioP1;P1;durP2;ratioP2;P2;SDS_P1;SDS_P2;PMS_P1;PMS_P2;Temp;Humidity;BMP_temperature;BMP_pressure;BME280_temperature;BME280_humidity;BME280_pressure;Samples;Min_cycle;Max_cycle;Signal;HPM_P1;HPM_P2
2021/04/18 00:00:00;;;;;;;;;;;;;;;6.92;58.56;103129.41;6073415;29;20011;-71
2021/04/18 00:03:05;;;;;;;;;;;;;;;6.85;58.53;103128.25;6073703;29;19920;-71
2021/04/18 00:06:10;;;;;;;;;;;;;;;6.76;59.02;103133.59;6072938;29;19920;-71
2021/04/18 00:09:14;;;;;;;;;;;;;;;6.63;59.98;103132.97;6072521;29;19927;-71
2021/04/18 00:12:17;;;;;;;;;;;;;;;6.69;59.70;103125.16;6072852;29;19963;-71
2021/04/18 00:15:19;;;;;;;;;;;;;;;6.66;59.89;103121.84;6073141;29;20003;-71
2021/04/18 00:18:23;;;;;;;1.50;1.40;;;;;;;6.79;59.39;103128.78;6071839;29;20203;-72
2021/04/18 00:21:27;;;;;;;1.77;1.67;;;;;;;6.48;59.72;103099.06;6071955;29;20194;-71
2021/04/18 00:24:30;;;;;;;1.73;1.63;;;;;;;6.69;60.08;103116.16;6055921;29;20219;-71
2021/04/18 00:27:34;;;;;;;1.50;1.50;;;;;;;6.65;60.16;103129.13;6054908;29;20237;-72
2021/04/18 00:30:37;;;;;;;2.08;1.98;;;;;;;6.61;60.54;103111.44;6072573;29;20225;-71
2021/04/18 00:33:40;;;;;;;1.87;1.50;;;;;;;6.47;60.88;103116.38;6072165;29;20190;-71
2021/04/18 00:36:55;;;;;;;1.85;1.75;;;;;;;6.44;61.05;103116.63;6072248;29;20289;-72
2021/04/18 00:39:59;;;;;;;2.47;1.70;;;;;;;6.54;61.27;103112.09;6071215;29;20445;-72
2021/04/18 00:43:02;;;;;;;3.83;1.60;;;;;;;6.41;61.74;103111.47;6071029;29;20257;-72
2021/04/18 00:46:05;;;;;;;5.97;1.70;;;;;;;6.54;61.46;103117.53;6072284;29;20201;-72
2021/04/18 00:49:09;;;;;;;1.93;1.80;;;;;;;6.46;61.46;103103.78;6070852;29;20237;-72
2021/04/18 00:52:13;;;;;;;4.13;2.30;;;;;;;6.42;62.04;103102.34;6070676;29;20247;-71
2021/04/18 00:55:16;;;;;;;3.23;1.40;;;;;;;6.43;62.10;103104.03;6072107;29;20196;-71
2021/04/18 00:58:19;;;;;;;1.77;1.67;;;;;;;6.32;62.29;103101.44;6071677;29;20221;-72
2021/04/18 01:01:23;;;;;;;1.70;1.63;;;;;;;6.29;62.68;103103.41;6071041;29;20477;-72
2021/04/18 01:04:27;;;;;;;2.03;1.70;;;;;;;6.30;62.54;103105.13;6071911;29;20225;-72
2021/04/18 01:07:32;;;;;;;2.00;1.73;;;;;;;6.30;62.52;103104.28;6054654;29;20198;-72
2021/04/18 01:10:36;;;;;;;2.20;1.73;;;;;;;6.15;63.07;103108.31;6071697;29;20218;-72
2021/04/18 01:13:39;;;;;;;3.60;2.07;;;;;;;6.16;63.41;103108.19;6071804;29;20239;-71
2021/04/18 01:16:45;;;;;;;3.23;1.50;;;;;;;6.20;63.07;103109.66;6071653;29;20242;-71
2021/04/18 01:19:48;;;;;;;1.60;1.50;;;;;;;6.29;62.79;103102.56;6054138;29;20206;-71
2021/04/18 01:22:54;;;;;;;3.22;1.60;;;;;;;6.51;62.12;103101.53;6069603;29;20807;-71
2021/04/18 01:26:06;;;;;;;2.03;1.90;;;;;;;6.27;62.95;103094.56;6054954;29;20205;-71
2021/04/18 01:29:13;;;;;;;5.50;1.80;;;;;;;5.96;63.35;103068.41;6054515;29;20277;-71
2021/04/18 01:32:19;;;;;;;1.70;1.70;;;;;;;6.24;62.82;103094.81;6070549;29;20242;-71
2021/04/18 01:35:23;;;;;;;1.63;1.50;;;;;;;6.23;63.02;103092.25;6071420;29;20194;-71
2021/04/18 01:38:27;;;;;;;3.33;1.47;;;;;;;6.22;62.78;103099.53;6054415;29;20289;-72
2021/04/18 01:41:31;;;;;;;2.47;1.67;;;;;;;6.07;64.09;103092.72;6070721;29;20545;-71
2021/04/18 01:44:34;;;;;;;2.30;1.70;;;;;;;6.07;63.65;103097.28;6070069;29;20293;-71
2021/04/18 01:47:39;;;;;;;1.77;1.67;;;;;;;5.92;63.50;103077.81;6071118;29;20190;-71
2021/04/18 01:50:49;;;;;;;2.40;1.77;;;;;;;5.98;63.44;103104.38;6071243;29;20231;-71
2021/04/18 01:53:54;;;;;;;;;;;;;;;6.09;63.86;103096.16;6070287;29;20257;-71
2021/04/18 01:56:57;;;;;;;;;;;;;;;6.14;63.88;103104.75;6071418;29;20546;-71
2021/04/18 02:00:03;;;;;;;;;;;;;;;6.19;63.68;103102.50;6053892;29;20246;-72
2021/04/18 02:03:19;;;;;;;;;;;;;;;6.08;63.94;103110.72;6070352;29;20107;-72
2021/04/18 02:06:24;;;;;;;;;;;;;;;5.99;64.24;103099.78;6054467;29;19919;-71
2021/04/18 02:09:38;;;;;;;;;;;;;;;5.92;64.62;103094.06;6069400;29;20023;-71
2021/04/18 02:12:43;;;;;;;;;;;;;;;5.83;64.63;103094.78;6069016;29;20058;-71
2021/04/18 02:15:49;;;;;;;1.50;1.40;;;;;;;5.92;64.26;103094.06;6070822;29;20056;-71
2021/04/18 02:18:52;;;;;;;1.60;1.50;;;;;;;5.86;64.48;103094.56;6053368;29;20367;-72
2021/04/18 02:21:56;;;;;;;2.00;1.67;;;;;;;5.94;64.00;103097.50;6069719;29;20253;-71
2021/04/18 02:25:00;;;;;;;;;;;;;;;5.98;63.69;103100.81;6053550;29;19994;-71
2021/04/18 02:28:05;;;;;;;;;;;;;;;5.88;64.08;103086.34;6069801;29;19919;-72
2021/04/18 02:31:12;;;;;;;;;;;;;;;5.78;64.39;103086.22;6071168;29;19968;-71
2021/04/18 02:34:18;;;;;;;;;;;;;;;5.61;64.74;103078.66;6074240;29;19919;-71
2021/04/18 02:37:22;;;;;;;;;;;;;;;5.60;64.76;103082.34;6074155;29;19919;-71
2021/04/18 02:40:26;;;;;;;;;;;;;;;5.66;64.38;103071.00;6074402;29;19935;-71
2021/04/18 02:43:29;;;;;;;;;;;;;;;5.79;64.72;103082.53;6057197;29;19920;-71
2021/04/18 02:46:32;;;;;;;;;;;;;;;5.88;64.35;103076.31;6029376;29;20007;-72
2021/04/18 02:49:36;;;;;;;1.90;1.80;;;;;;;5.78;64.51;103069.94;6028373;29;20058;-72
2021/04/18 02:52:39;;;;;;;2.03;1.80;;;;;;;5.79;64.07;103077.09;6028667;29;20222;-72
2021/04/18 02:55:44;;;;;;;1.80;1.80;;;;;;;5.81;63.86;103075.13;6028529;29;20338;-71
2021/04/18 02:58:57;;;;;;;1.47;1.47;;;;;;;5.67;64.49;103078.16;6027009;29;20219;-72
2021/04/18 03:02:00;;;;;;;3.90;2.20;;;;;;;5.79;63.70;103081.66;6027362;29;20230;-71
2021/04/18 03:05:10;;;;;;;1.53;1.53;;;;;;;5.60;64.62;103083.22;6028077;29;20198;-71
2021/04/18 03:08:17;;;;;;;2.50;1.97;;;;;;;5.62;64.30;103075.00;6026629;29;20211;-71
2021/04/18 03:11:22;;;;;;;2.80;1.60;;;;;;;5.65;63.98;103080.97;6026928;29;20241;-71
2021/04/18 03:14:28;;;;;;;3.33;2.23;;;;;;;5.58;64.65;103084.34;6026918;29;20286;-71
2021/04/18 03:17:32;;;;;;;1.80;1.70;;;;;;;5.67;64.49;103089.00;6026951;29;20282;-71
2021/04/18 03:20:44;;;;;;;3.63;1.83;;;;;;;5.17;64.36;103040.94;6028063;29;20206;-71
2021/04/18 03:23:48;;;;;;;1.70;1.70;;;;;;;5.38;65.09;103077.06;6025954;29;20555;-71
2021/04/18 03:26:52;;;;;;;;;;;;;;;5.51;64.96;103083.16;6028534;29;20116;-71
2021/04/18 03:29:55;;;;;;;;;;;;;;;5.54;64.56;103083.78;6027396;29;19921;-71
2021/04/18 03:32:59;;;;;;;1.77;1.67;;;;;;;5.56;64.76;103080.91;6027903;29;20254;-71
2021/04/18 03:36:05;;;;;;;1.80;1.80;;;;;;;5.46;65.59;103090.81;6026261;29;20261;-71
2021/04/18 03:39:36;;;;;;;1.50;1.40;;;;;;;5.30;65.71;103079.53;5994452;29;20211;-71
2021/04/18 03:42:42;;;;;;;1.87;1.77;;;;;;;5.40;65.50;103085.91;6033016;29;20228;-73
2021/04/18 03:45:45;;;;;;;;;;;;;;;5.54;64.63;103078.34;6072849;29;20115;-71
2021/04/18 03:48:51;;;;;;;2.77;1.90;;;;;;;5.67;64.38;103083.56;6056360;29;19919;-70
2021/04/18 03:51:56;;;;;;;2.43;1.70;;;;;;;5.50;65.03;103086.84;6056637;29;20293;-71
2021/04/18 03:54:59;;;;;;;3.47;1.80;;;;;;;5.60;64.70;103085.06;6055644;29;20210;-71
2021/04/18 03:58:05;;;;;;;3.77;1.90;;;;;;;5.38;65.05;103082.47;6072625;29;20201;-71
2021/04/18 04:01:11;;;;;;;1.70;1.60;;;;;;;5.52;64.53;103076.75;6055646;29;20240;-71
2021/04/18 04:04:15;;;;;;;3.53;2.43;;;;;;;5.38;65.88;103079.75;6056411;29;20212;-71
2021/04/18 04:07:20;;;;;;;2.60;2.00;;;;;;;5.36;65.78;103090.72;6056224;29;20215;-71
2021/04/18 04:10:24;;;;;;;2.77;1.80;;;;;;;5.48;65.18;103088.81;6055401;29;20515;-71
2021/04/18 04:13:29;;;;;;;2.60;1.57;;;;;;;5.35;66.02;103082.72;6072594;29;20223;-71
2021/04/18 04:16:35;;;;;;;2.77;2.00;;;;;;;5.44;64.95;103088.25;6072926;29;20199;-71
2021/04/18 04:19:39;;;;;;;2.40;1.67;;;;;;;5.49;65.04;103090.56;6056133;29;20212;-70
2021/04/18 04:23:15;;;;;;;1.80;1.70;;;;;;;5.49;64.42;103085.13;6040337;29;20217;-72
2021/04/18 04:26:18;;;;;;;1.73;1.63;;;;;;;5.37;65.26;103091.56;6072367;29;20193;-71
2021/04/18 04:29:22;;;;;;;2.63;1.80;;;;;;;5.38;64.68;103083.34;6071288;29;20451;-71
2021/04/18 04:32:26;;;;;;;2.00;1.90;;;;;;;5.28;64.83;103074.28;6072268;29;20218;-71
2021/04/18 04:35:29;;;;;;;1.93;1.90;;;;;;;5.49;64.23;103095.97;6072447;29;20237;-72
2021/04/18 04:38:32;;;;;;;5.40;1.60;;;;;;;5.42;65.22;103090.19;6071294;29;20233;-70
2021/04/18 04:41:36;;;;;;;3.13;1.90;;;;;;;5.52;64.47;103101.13;6072412;29;20225;-72
2021/04/18 04:44:44;;;;;;;1.83;1.73;;;;;;;5.56;64.02;103097.16;6046961;29;20242;-70
2021/04/18 04:47:48;;;;;;;4.83;1.90;;;;;;;5.40;64.55;103108.44;6048960;29;20201;-71
2021/04/18 04:50:51;;;;;;;1.83;1.73;;;;;;;5.52;64.24;103095.72;6048885;29;20216;-72
2021/04/18 04:53:54;;;;;;;1.97;1.80;;;;;;;5.70;63.34;103104.97;6048216;29;20241;-71
2021/04/18 04:56:57;;;;;;;2.20;1.80;;;;;;;5.88;62.87;103098.00;6048639;29;20230;-71
2021/04/18 05:00:01;;;;;;;1.77;1.70;;;;;;;5.84;62.79;103096.53;6049143;29;20227;-71
2021/04/18 05:03:06;;;;;;;2.03;1.83;;;;;;;5.89;62.70;103104.28;6046825;29;20205;-71
2021/04/18 05:06:11;;;;;;;5.20;2.37;;;;;;;5.86;62.59;103101.84;6048017;29;20194;-72
2021/04/18 05:09:14;;;;;;;2.10;1.90;;;;;;;5.88;62.50;103103.41;6048432;29;20201;-71
2021/04/18 05:12:17;;;;;;;3.33;1.70;;;;;;;5.94;61.95;103097.50;6048429;29;20275;-71
2021/04/18 05:15:22;;;;;;;1.63;1.63;;;;;;;5.85;62.37;103103.72;6047399;29;20438;-71
2021/04/18 05:18:25;;;;;;;1.73;1.63;;;;;;;5.94;62.06;103107.47;6048636;29;20225;-71
2021/04/18 05:21:29;;;;;;;1.70;1.60;;;;;;;5.90;61.97;103106.03;6048633;29;20222;-71
2021/04/18 05:24:32;;;;;;;1.90;1.80;;;;;;;5.99;61.26;103106.06;6048191;29;20194;-72
2021/04/18 05:27:36;;;;;;;3.10;1.97;;;;;;;6.12;61.41;103106.75;6047181;29;20270;-72
2021/04/18 05:30:39;;;;;;;1.90;1.80;;;;;;;6.09;61.61;103112.41;6048417;29;20194;-72
2021/04/18 05:33:43;;;;;;;2.00;1.90;;;;;;;6.22;60.93;103107.66;6047864;29;20218;-72
2021/04/18 05:36:46;;;;;;;1.87;1.73;;;;;;;6.27;60.43;103094.56;6048168;29;20194;-72
2021/04/18 05:39:49;;;;;;;3.43;1.90;;;;;;;6.26;60.50;103098.28;6047325;29;20210;-72
2021/04/18 05:42:52;;;;;;;2.17;2.07;;;;;;;6.39;60.30;103103.47;6050597;29;20305;-72
2021/04/18 05:45:56;;;;;;;3.90;1.60;;;;;;;6.37;59.92;103099.19;6070458;29;20276;-71
2021/04/18 05:48:59;;;;;;;2.73;1.47;;;;;;;6.48;59.41;103101.78;6070086;29;20249;-71
2021/04/18 05:52:03;;;;;;;2.00;1.60;;;;;;;6.58;58.66;103108.09;6070079;29;20605;-71
2021/04/18 05:55:09;;;;;;;1.53;1.53;;;;;;;6.67;58.53;103113.59;6071223;29;20222;-71
2021/04/18 05:58:12;;;;;;;3.77;1.70;;;;;;;6.76;57.85;103096.47;6071231;29;20190;-71
2021/04/18 06:01:22;;;;;;;;;;;;;;;6.88;57.66;103100.78;6071347;29;20056;-72
2021/04/18 06:04:25;;;;;;;2.20;1.93;;;;;;;6.94;57.72;103107.53;6053252;29;20211;-71
2021/04/18 06:07:29;;;;;;;5.90;1.70;;;;;;;7.02;57.59;103107.69;6071575;29;20198;-71
2021/04/18 06:10:33;;;;;;;2.60;1.70;;;;;;;7.09;57.45;103097.16;6075395;29;20190;-71
2021/04/18 06:13:36;;;;;;;7.03;1.60;;;;;;;7.27;56.92;103112.59;6075617;29;20245;-71
2021/04/18 06:16:41;;;;;;;3.22;1.70;;;;;;;7.40;56.48;103102.34;6075593;29;20253;-71
2021/04/18 06:19:45;;;;;;;4.70;1.40;;;;;;;7.58;55.52;103100.63;6075629;29;20206;-71
2021/04/18 06:22:48;;;;;;;1.50;1.40;;;;;;;7.51;55.51;103088.63;6075079;29;20331;-71
2021/04/18 06:25:52;;;;;;;1.50;1.40;;;;;;;7.67;55.36;103098.06;6075053;29;20190;-71
2021/04/18 06:28:55;;;;;;;3.88;1.45;;;;;;;7.77;55.21;103093.47;6075257;29;20239;-71
2021/04/18 06:31:59;;;;;;;1.50;1.40;;;;;;;7.95;54.02;103091.75;6073809;29;20501;-71
2021/04/18 06:35:03;;;;;;;2.55;1.50;;;;;;;8.10;54.29;103084.84;6073826;29;20191;-72
2021/04/18 06:38:07;;;;;;;3.20;1.67;;;;;;;8.21;53.70;103092.84;6075449;29;20056;-72
2021/04/18 06:41:15;;;;;;;;;;;;;;;8.41;53.10;103089.09;6074570;29;20489;-72
2021/04/18 06:44:18;;;;;;;;;;;;;;;8.78;51.26;103092.63;6074934;29;20236;-72
2021/04/18 06:47:22;;;;;;;1.90;1.80;;;;;;;9.16;49.88;103086.13;6075283;29;19931;-72
2021/04/18 06:50:26;;;;;;;;;;;;;;;9.48;48.37;103080.13;6073957;29;20073;-71
2021/04/18 06:53:29;;;;;;;;;;;;;;;9.88;48.48;103080.50;6075052;29;20199;-71
2021/04/18 06:56:32;;;;;;;6.63;1.75;;;;;;;10.06;47.88;103084.06;6074306;29;20588;-71
2021/04/18 06:59:36;;;;;;;2.63;1.73;;;;;;;10.16;47.69;103085.84;6074800;29;20053;-71
2021/04/18 07:02:41;;;;;;;1.60;1.50;;;;;;;10.07;47.22;103080.31;6073775;29;20168;-71
2021/04/18 07:05:46;;;;;;;1.23;1.13;;;;;;;10.11;46.27;103077.25;6073956;29;20190;-71
2021/04/18 07:08:57;;;;;;;3.78;1.60;;;;;;;10.16;47.72;103064.03;6073174;29;20362;-71
2021/04/18 07:12:07;;;;;;;2.05;1.70;;;;;;;10.30;46.42;103077.06;6073882;29;20191;-71
2021/04/18 07:15:35;;;;;;;3.05;1.52;;;;;;;10.36;45.76;103066.38;6073813;29;20197;-71
2021/04/18 07:18:40;;;;;;;1.90;1.70;;;;;;;10.44;45.97;103068.28;6073904;29;20190;-70
2021/04/18 07:21:49;;;;;;;1.55;1.45;;;;;;;10.45;44.96;103070.00;6073776;29;20196;-71
2021/04/18 07:24:53;;;;;;;1.50;1.40;;;;;;;10.42;44.74;103075.78;6073418;29;20194;-71
2021/04/18 07:27:57;;;;;;;2.17;1.42;;;;;;;10.42;45.14;103070.34;6073577;29;20259;-72
2021/04/18 07:31:02;;;;;;;1.45;1.20;;;;;;;10.39;45.17;103065.19;6072393;29;20557;-72
2021/04/18 07:34:09;;;;;;;1.65;1.52;;;;;;;10.36;44.39;103071.84;6073776;29;20218;-72
2021/04/18 07:37:13;;;;;;;7.00;1.60;;;;;;;10.48;44.65;103069.66;6072415;29;20190;-71
2021/04/18 07:40:30;;;;;;;1.58;1.45;;;;;;;10.60;44.81;103079.31;6073301;29;20214;-71
2021/04/18 07:43:33;;;;;;;2.53;1.80;;;;;;;10.61;44.93;103070.06;6072496;29;20532;-71
2021/04/18 07:46:47;;;;;;;1.73;1.73;;;;;;;10.58;44.17;103064.94;6073267;29;20191;-71
2021/04/18 07:49:52;;;;;;;2.65;1.88;;;;;;;10.64;44.16;103061.56;6071943;29;20190;-72
2021/04/18 07:52:56;;;;;;;5.10;2.03;;;;;;;10.52;44.10;103071.06;6072801;29;20245;-71
2021/04/18 07:55:59;;;;;;;1.60;1.38;;;;;;;10.72;43.41;103068.94;6072886;29;20301;-71
2021/04/18 07:59:03;;;;;;;1.50;1.50;;;;;;;10.75;42.82;103072.19;6073003;29;20191;-71
2021/04/18 08:02:07;;;;;;;1.45;1.45;;;;;;;10.76;43.13;103062.97;6072765;29;20229;-71
2021/04/18 08:05:12;;;;;;;;;;;;;;;10.85;43.04;103064.72;6072166;29;19948;-72
2021/04/18 08:08:17;;;;;;;1.40;1.35;;;;;;;10.78;43.25;103054.63;6071745;29;20277;-72
2021/04/18 08:11:22;;;;;;;3.05;1.83;;;;;;;10.86;42.66;103052.75;6071510;29;20465;-72
2021/04/18 08:14:26;;;;;;;1.60;1.50;;;;;;;10.88;42.35;103060.81;6071382;29;20286;-72
2021/04/18 08:17:29;;;;;;;;;;;;;;;10.73;42.18;103057.88;6072643;29;20237;-72
2021/04/18 08:20:34;;;;;;;;;;;;;;;10.79;41.26;103051.72;6072925;29;19924;-71
2021/04/18 08:23:38;;;;;;;;;;;;;;;10.92;42.15;103057.56;6071711;29;20103;-71
2021/04/18 08:26:57;;;;;;;;;;;;;;;10.91;42.63;103057.75;6072276;29;19983;-72
2021/04/18 08:30:04;;;;;;;3.80;1.55;;;;;;;11.05;42.46;103051.63;6070776;29;20234;-71
2021/04/18 08:33:45;;;;;;;4.18;1.75;;;;;;;11.05;41.62;103057.97;6071103;29;20466;-72
2021/04/18 08:36:52;;;;;;;;;;;;;;;11.07;41.65;103053.19;6072948;29;20064;-72
2021/04/18 08:40:04;;;;;;;1.60;1.50;;;;;;;11.05;41.91;103052.50;6072359;29;19983;-71
2021/04/18 08:43:16;;;;;;;;;;;;;;;11.01;41.47;103051.13;6071967;29;20237;-73
2021/04/18 08:46:21;;;;;;;5.18;1.60;;;;;;;10.94;40.43;103065.63;6072621;29;19958;-72
2021/04/18 08:49:25;;;;;;;;;;;;;;;10.90;41.11;103058.75;6071866;29;20197;-72
2021/04/18 08:52:31;;;;;;;;;;;;;;;10.72;41.40;103061.59;6072191;29;19979;-71
2021/04/18 08:55:34;;;;;;;;;;;;;;;10.74;40.91;103067.75;6071478;29;20018;-72
2021/04/18 08:58:37;;;;;;;;;;;;;;;10.79;41.35;103061.78;6072416;29;19920;-71
2021/04/18 09:01:52;;;;;;;;;;;;;;;10.64;41.98;103064.28;6072452;29;19920;-71
2021/04/18 09:04:58;;;;;;;;;;;;;;;10.75;40.96;103061.28;6072277;29;19923;-71
2021/04/18 09:08:04;;;;;;;;;;;;;;;10.61;41.13;103061.88;6072459;29;19982;-73
2021/04/18 09:11:07;;;;;;;;;;;;;;;10.64;41.11;103064.28;6072394;29;19928;-71
2021/04/18 09:14:10;;;;;;;;;;;;;;;10.65;40.57;103061.41;6072153;29;20064;-71
2021/04/18 09:17:15;;;;;;;;;;;;;;;10.66;41.15;103067.72;6071765;29;19920;-73
2021/04/18 09:20:19;;;;;;;;;;;;;;;10.60;41.99;103079.31;6072206;29;19964;-72
2021/04/18 09:23:22;;;;;;;;;;;;;;;10.65;41.33;103066.88;6072031;29;19920;-73
2021/04/18 09:26:25;;;;;;;;;;;;;;;10.63;41.01;103073.53;6071719;29;20187;-72
2021/04/18 09:29:28;;;;;;;;;;;;;;;10.59;41.13;103061.19;6072117;29;19961;-72
2021/04/18 09:32:32;;;;;;;;;;;;;;;10.63;41.33;103057.13;6071246;29;19926;-72
2021/04/18 09:35:35;;;;;;;;;;;;;;;10.64;40.88;103053.38;6071548;29;19969;-72
2021/04/18 09:38:39;;;;;;;;;;;;;;;10.61;40.90;103070.06;6072186;29;19920;-72
2021/04/18 09:41:42;;;;;;;;;;;;;;;10.64;40.93;103058.84;6073500;29;19955;-72
2021/04/18 09:44:46;;;;;;;;;;;;;;;10.67;40.75;103058.50;6076384;29;20179;-73
2021/04/18 09:47:50;;;;;;;;;;;;;;;10.68;40.68;103073.88;6076890;29;19920;-72
2021/04/18 09:50:59;;;;;;;;;;;;;;;10.68;40.72;103061.06;6076346;29;19926;-72
2021/04/18 09:54:04;;;;;;;;;;;;;;;10.75;40.78;103058.56;6075721;29;19920;-73
2021/04/18 09:57:11;;;;;;;;;;;;;;;10.83;40.47;103069.50;6075571;29;19943;-73
2021/04/18 10:00:18;;;;;;;;;;;;;;;10.85;40.41;103059.25;6076537;29;19982;-73
2021/04/18 10:03:21;;;;;;;;;;;;;;;10.92;39.66;103063.03;6074927;29;19923;-71
2021/04/18 10:06:25;;;;;;;;;;;;;;;10.90;39.55;103065.09;6074665;29;20164;-72
2021/04/18 10:09:43;;;;;;;;;;;;;;;10.91;39.60;103061.34;6075760;29;19919;-71
2021/04/18 10:12:55;;;;;;;;;;;;;;;11.08;40.33;103063.09;6074687;29;19919;-71
2021/04/18 10:15:58;;;;;;;;;;;;;;;10.98;41.45;103062.38;6075786;29;19962;-71
2021/04/18 10:19:07;;;;;;;;;;;;;;;11.01;42.07;103062.06;6074505;29;19983;-72
2021/04/18 10:22:10;;;;;;;;;;;;;;;10.95;42.03;103072.78;6075517;29;19920;-72
2021/04/18 10:25:14;;;;;;;;;;;;;;;11.04;41.99;103050.78;6074330;29;20238;-72
2021/04/18 10:28:17;;;;;;;;;;;;;;;11.00;42.84;103060.34;6074321;29;19919;-72
2021/04/18 10:31:22;;;;;;;;;;;;;;;11.02;42.37;103073.81;6075132;29;19920;-72
2021/04/18 10:34:26;;;;;;;;;;;;;;;11.11;42.03;103057.31;6075226;29;19920;-72
2021/04/18 10:37:29;;;;;;;;;;;;;;;11.14;42.30;103062.44;6074940;29;19919;-72
2021/04/18 10:40:32;;;;;;;;;;;;;;;11.31;42.26;103058.72;6075267;29;19961;-72
2021/04/18 10:43:37;;;;;;;1.63;1.63;;;;;;;11.19;42.32;103054.59;6073553;29;20590;-72
2021/04/18 10:46:41;;;;;;;2.10;1.83;;;;;;;11.27;42.40;103068.25;6074541;29;20228;-72
2021/04/18 10:49:46;;;;;;;2.00;1.80;;;;;;;11.36;42.69;103060.94;6074179;29;20190;-72
2021/04/18 10:52:50;;;;;;;2.80;1.75;;;;;;;11.38;42.24;103060.75;6072590;29;20191;-72
2021/04/18 10:55:53;;;;;;;1.73;1.63;;;;;;;11.53;41.84;103067.28;6074086;29;20246;-71
2021/04/18 10:58:57;;;;;;;2.20;1.92;;;;;;;11.51;41.81;103058.38;6074316;29;20216;-71
2021/04/18 11:02:00;;;;;;;1.60;1.60;;;;;;;11.45;41.89;103078.22;6073763;29;20190;-71
2021/04/18 11:05:04;;;;;;;;;;;;;;;11.52;42.14;103071.03;6073351;29;20217;-71
2021/04/18 11:08:10;;;;;;;;;;;;;;;11.49;42.25;103074.97;6074130;29;19919;-71
2021/04/18 11:11:13;;;;;;;;;;;;;;;11.45;41.90;103075.47;6074268;29;20166;-71
2021/04/18 11:14:17;;;;;;;2.65;1.80;;;;;;;11.48;40.91;103075.97;6073576;29;20188;-71
2021/04/18 11:17:20;;;;;;;1.98;1.88;;;;;;;11.51;41.08;103063.84;6073462;29;20190;-71
2021/04/18 11:20:26;;;;;;;2.20;1.70;;;;;;;11.69;40.93;103064.56;6072468;29;20521;-72
2021/04/18 11:23:29;;;;;;;5.63;1.83;;;;;;;11.71;40.56;103068.00;6073495;29;20210;-73
2021/04/18 11:26:32;;;;;;;;;;;;;;;11.62;40.73;103066.25;6073841;29;20162;-71
2021/04/18 11:29:38;;;;;;;3.90;1.60;;;;;;;11.63;40.75;103065.25;6072780;29;19959;-71
2021/04/18 11:32:41;;;;;;;2.53;1.50;;;;;;;11.64;40.53;103064.19;6073668;29;20229;-72
2021/04/18 11:35:45;;;;;;;1.70;1.42;;;;;;;11.67;39.95;103070.19;6073390;29;20252;-72
2021/04/18 11:38:48;;;;;;;1.90;1.80;;;;;;;11.56;39.97;103050.50;6073362;29;20196;-72
2021/04/18 11:42:06;;;;;;;1.45;1.40;;;;;;;11.72;40.30;103072.44;6071485;29;20496;-72
2021/04/18 11:45:12;;;;;;;1.80;1.70;;;;;;;11.71;40.46;103062.53;6071919;29;20245;-72
2021/04/18 11:48:15;;;;;;;;;;;;;;;11.98;40.43;103073.13;6073054;29;20190;-72
2021/04/18 11:51:18;;;;;;;;;;;;;;;11.96;40.68;103075.19;6071226;29;20278;-72
2021/04/18 11:54:21;;;;;;;;;;;;;;;11.88;40.34;103069.72;6072807;29;20159;-73
2021/04/18 11:57:24;;;;;;;3.30;1.60;;;;;;;12.03;39.55;103075.34;6071636;29;20226;-71
2021/04/18 12:00:27;;;;;;;;;;;;;;;11.84;40.18;103069.19;6071754;29;20767;-71
2021/04/18 12:03:30;;;;;;;;;;;;;;;11.87;40.27;103068.00;6072023;29;20245;-72
2021/04/18 12:06:34;;;;;;;;;;;;;;;11.92;40.28;103068.31;6072123;29;19919;-72
2021/04/18 12:09:37;;;;;;;2.85;1.90;;;;;;;11.92;40.23;103073.81;6072209;29;19920;-72
2021/04/18 12:12:40;;;;;;;3.28;1.95;;;;;;;11.85;38.80;103056.38;6071032;29;20190;-72
2021/04/18 12:15:45;;;;;;;1.60;1.50;;;;;;;11.84;38.49;103065.59;6072242;29;20262;-72
2021/04/18 12:18:49;;;;;;;2.17;1.40;;;;;;;11.70;38.51;103048.00;6072160;29;20190;-72
2021/04/18 12:21:52;;;;;;;6.15;1.85;;;;;;;11.86;38.51;103075.34;6072233;29;20238;-71
2021/04/18 12:24:55;;;;;;;6.63;3.25;;;;;;;11.92;38.69;103062.84;6071900;29;20198;-71
2021/04/18 12:27:58;;;;;;;5.93;3.35;;;;;;;12.00;38.64;103060.13;6072546;29;20222;-70
2021/04/18 12:31:02;;;;;;;5.90;2.58;;;;;;;12.01;38.89;103072.78;6071707;29;20190;-71
2021/04/18 12:34:05;;;;;;;2.67;2.47;;;;;;;12.00;38.46;103071.06;6071564;29;20218;-72
2021/04/18 12:37:10;;;;;;;5.35;3.17;;;;;;;12.00;38.49;103049.16;6071258;29;20221;-72
2021/04/18 12:40:13;;;;;;;1.48;1.48;;;;;;;12.11;38.59;103062.50;6070846;29;20380;-71
2021/04/18 12:43:16;;;;;;;2.63;1.80;;;;;;;12.09;38.13;103069.19;6071469;29;20285;-72
2021/04/18 12:46:20;;;;;;;1.75;1.52;;;;;;;12.10;38.27;103060.78;6053967;29;20288;-71
2021/04/18 12:49:24;;;;;;;2.90;1.70;;;;;;;12.05;39.34;103056.84;6070824;29;20198;-72
2021/04/18 12:52:27;;;;;;;1.80;1.70;;;;;;;12.00;38.07;103057.38;6071546;29;20197;-71
2021/04/18 12:55:30;;;;;;;1.40;1.40;;;;;;;11.97;38.21;103063.19;6070432;29;20411;-71
2021/04/18 12:58:34;;;;;;;1.70;1.55;;;;;;;12.06;38.35;103048.50;6070228;29;20508;-71
2021/04/18 13:01:40;;;;;;;1.50;1.40;;;;;;;11.89;37.99;103039.44;6071352;29;20190;-71
2021/04/18 13:04:44;;;;;;;2.40;2.28;;;;;;;11.97;38.26;103056.88;6071489;29;20202;-72
2021/04/18 13:07:47;;;;;;;1.80;1.70;;;;;;;11.98;38.65;103051.22;6070227;29;20213;-72
2021/04/18 13:10:50;;;;;;;1.55;1.45;;;;;;;12.09;38.03;103050.88;6071234;29;20190;-71
2021/04/18 13:13:53;;;;;;;2.05;1.63;;;;;;;12.07;38.99;103055.66;6071013;29;20225;-72
2021/04/18 13:16:58;;;;;;;1.50;1.45;;;;;;;12.02;38.60;103047.13;6070993;29;20191;-72
2021/04/18 13:20:01;;;;;;;2.42;1.30;;;;;;;12.13;37.90;103049.50;6069925;29;20222;-72
2021/04/18 13:23:04;;;;;;;3.92;1.50;;;;;;;12.17;38.80;103050.84;6070838;29;20190;-71
2021/04/18 13:26:10;;;;;;;4.22;1.55;;;;;;;12.11;38.97;103051.56;6069644;29;20194;-72
2021/04/18 13:29:13;;;;;;;1.48;1.48;;;;;;;12.19;38.02;103054.28;6070545;29;20194;-71
2021/04/18 13:32:18;;;;;;;2.75;1.55;;;;;;;12.04;37.97;103028.66;6071188;29;20190;-72
2021/04/18 13:35:21;;;;;;;1.50;1.40;;;;;;;12.11;37.44;103037.88;6070882;29;20282;-72
2021/04/18 13:38:24;;;;;;;4.70;1.40;;;;;;;12.19;37.52;103050.69;6069643;29;20343;-72
2021/04/18 13:41:28;;;;;;;1.40;1.30;;;;;;;12.14;37.40;103045.75;6070944;29;20212;-70
2021/04/18 13:44:31;;;;;;;2.85;1.75;;;;;;;12.12;37.50;103047.78;6070187;29;20328;-72
2021/04/18 13:47:35;;;;;;;1.65;1.50;;;;;;;12.21;37.44;103046.75;6070824;29;20197;-71
2021/04/18 13:50:39;;;;;;;3.70;1.35;;;;;;;12.18;37.47;103046.22;6071053;29;20198;-72
2021/04/18 13:53:42;;;;;;;5.75;1.77;;;;;;;12.22;37.34;103053.91;6070733;29;20325;-71
2021/04/18 13:56:45;;;;;;;1.30;1.30;;;;;;;12.13;37.11;103048.63;6070057;29;20191;-72
2021/04/18 13:59:49;;;;;;;2.85;1.90;;;;;;;12.29;37.00;103048.63;6069633;29;20368;-72
2021/04/18 14:02:53;;;;;;;2.05;1.60;;;;;;;12.17;37.68;103053.56;6070740;29;20255;-72
2021/04/18 14:05:58;;;;;;;4.55;1.70;;;;;;;12.10;37.23;103044.38;6069709;29;20516;-72
2021/04/18 14:09:01;;;;;;;1.95;1.33;;;;;;;12.13;37.19;103049.50;6069442;29;20489;-72
2021/04/18 14:12:06;;;;;;;5.72;1.40;;;;;;;12.15;36.40;103058.38;6070945;29;20194;-72
2021/04/18 14:15:12;;;;;;;1.10;1.10;;;;;;;12.16;36.70;103042.81;6070404;29;20245;-72
2021/04/18 14:18:17;;;;;;;4.60;1.17;;;;;;;12.19;36.45;103058.91;6070511;29;20190;-72
2021/04/18 14:21:21;;;;;;;1.30;1.30;;;;;;;12.07;36.54;103044.72;6071016;29;20190;-71
2021/04/18 14:24:26;;;;;;;2.47;1.65;;;;;;;12.16;36.60;103043.69;6053821;29;20210;-71
2021/04/18 14:27:29;;;;;;;1.38;1.38;;;;;;;12.14;36.20;103048.47;6069648;29;20194;-71
2021/04/18 14:30:32;;;;;;;1.92;1.83;;;;;;;12.20;36.09;103045.03;6075135;29;20194;-71
2021/04/18 14:33:36;;;;;;;1.60;1.50;;;;;;;12.13;35.74;103049.50;6073701;29;20386;-72
2021/04/18 14:36:41;;;;;;;1.33;1.30;;;;;;;12.22;36.47;103048.44;6074815;29;20271;-71
2021/04/18 14:39:44;;;;;;;1.30;1.30;;;;;;;12.06;35.33;103026.59;6074362;29;20262;-72
2021/04/18 14:42:47;;;;;;;1.70;1.25;;;;;;;12.17;35.71;103042.63;6074572;29;20215;-71
2021/04/18 14:45:50;;;;;;;2.90;2.70;;;;;;;12.13;35.80;103054.97;6074918;29;20194;-70
2021/04/18 14:48:55;;;;;;;2.17;1.60;;;;;;;12.08;35.74;103035.47;6074310;29;20194;-71